Airfield :
LOGIN :

Register | Disclaimer

   EN    FR    IT 

 










Legend :    VFR   Marginal VFR   IFR   Intensive IFR   Very Intensive IFR
Visi :
Ceiling :
>= 8 km
>= 3000ft
5 to 8 km
1000 to 3000 ft
1500m to 5 km
500 to 1000 ft
800 to 1500m
200 to 500 ft
< 800m
< 200 ft
Symbols :   Thunderstorms  Fog  Heavy snow  Heavy precipitations  Wind > 20 kt
SIGMETs :     Misc.  Thunderstorms  Icing  Turbulence  Mountain Waves  Volcanic Ashes







- Airport Elevation : 65 ft
- IATA code : PIK
- Download approach charts


EGPK - Glasgow Prestwick

CURRENT METAR :
  • 170620Z VRB10KT 9999 FEW014 SCT025 12/10 Q1008

EXPIRED METARs :
  • 170550Z 17008KT 9999 FEW014 SCT025 12/10 Q1008
  • 170450Z 18010KT 9999 FEW014 SCT025 12/10 Q1008
  • 170350Z 19011KT 9999 FEW020 11/09 Q1007

TAF TAF EGPK
Valid from the 17 at 06:00 until the 18 at 06:00 UTC


170457Z 1706/1806 19012KT 9999 FEW025 SCT035
PROB30
TEMPO 1706/1710 BKN012
TEMPO 1708/1718 21016G26KT
TEMPO 1711/1720 7000 SHRA
PROB30
TEMPO 1711/1717 3000 +SHRA BKN014CB
No reported NOTAMs for that airfield.
1 SIGMET reported for the Scottish FIR (EGPX) :
 
Severe mountain waves
EGPX SIGMET 01 VALID 170330/170730 EGRR
EGPX SCOTTISH FIR SEV MTW FCST WI N5500 W00407 - N5525 W00442 - N5551 W00229 - N5500 W00140 - N5500 W00407 FL030/180 STNR WKN=



MET'MAP, your aeronautical weather chart ! - Copyright ORBIFLY December 2007 - Disclaimer

ORBIFLY MET'MAP TEAM :

Programming & Development : Alexandra Zaïnal
Concept & Development : Baudouin d'Aumeries
Co-Development & Prog : Marc-Olivier Méhu
Technical & hardware support : Manuel Goepfert

Contact : metmap@orbifly.com




SOURCES & CREDITS :

   NOAA